Time;durP1;ratioP1;P1;durP2;ratioP2;P2;SDS_P1;SDS_P2;PMS_P1;PMS_P2;Temp;Humidity;BMP_temperature;BMP_pressure;BME280_temperature;BME280_humidity;BME280_pressure;Samples;Min_cycle;Max_cycle;Signal;HPM_P1;HPM_P2
2020/12/17 00:01:59;;;;;;;3.00;2.60;;;22.00;53.80;;;;;;5116315;28;20694;-66
2020/12/17 00:04:26;;;;;;;2.33;2.13;;;22.00;53.80;;;;;;5116357;28;20540;-66
2020/12/17 00:06:53;;;;;;;3.90;2.93;;;22.00;53.80;;;;;;5116321;28;20438;-66
2020/12/17 00:09:20;;;;;;;2.70;2.50;;;22.00;53.80;;;;;;5117067;28;20451;-66
2020/12/17 00:11:46;;;;;;;2.97;2.77;;;22.00;53.80;;;;;;5116167;28;20426;-67
2020/12/17 00:14:12;;;;;;;2.93;2.73;;;22.00;53.80;;;;;;5116229;28;20957;-66
2020/12/17 00:16:38;;;;;;;2.53;2.23;;;22.00;53.80;;;;;;5116148;28;20196;-66
2020/12/17 00:19:05;;;;;;;2.50;2.23;;;22.00;53.80;;;;;;5116002;27;20921;-66
2020/12/17 00:21:31;;;;;;;3.13;2.30;;;22.00;53.80;;;;;;5116256;27;20395;-66
2020/12/17 00:23:57;;;;;;;2.50;2.30;;;22.00;53.80;;;;;;5113777;28;20827;-66
2020/12/17 00:26:26;;;;;;;3.33;2.93;;;22.00;53.80;;;;;;5115941;28;20407;-67
2020/12/17 00:28:54;;;;;;;3.30;2.57;;;22.00;53.80;;;;;;5116155;28;20169;-67
2020/12/17 00:31:20;;;;;;;2.60;2.23;;;21.90;53.80;;;;;;5116056;28;20415;-66
2020/12/17 00:33:47;;;;;;;2.73;2.27;;;22.00;53.90;;;;;;5115765;28;20517;-66
2020/12/17 00:36:25;;;;;;;3.20;2.90;;;21.90;53.80;;;;;;5115371;28;20411;-67
2020/12/17 00:38:51;;;;;;;2.60;2.33;;;22.00;53.90;;;;;;5116066;28;20459;-67
2020/12/17 00:41:17;;;;;;;3.20;2.40;;;21.90;53.80;;;;;;5115592;28;20849;-66
2020/12/17 00:43:44;;;;;;;3.10;2.60;;;21.90;53.80;;;;;;5115381;28;20679;-66
2020/12/17 00:46:15;;;;;;;3.13;2.30;;;21.90;53.80;;;;;;5115572;28;20912;-66
2020/12/17 00:48:42;;;;;;;2.70;2.40;;;21.90;53.80;;;;;;5115579;28;20845;-66
2020/12/17 00:51:07;;;;;;;2.97;2.67;;;21.90;53.80;;;;;;5115526;28;20473;-66
2020/12/17 00:53:33;;;;;;;4.20;3.43;;;21.90;54.40;;;;;;5115377;28;20434;-67
2020/12/17 00:55:59;;;;;;;3.90;2.77;;;21.90;53.80;;;;;;5115409;28;20188;-67
2020/12/17 00:58:24;;;;;;;3.57;2.80;;;21.90;53.80;;;;;;5115327;28;20222;-66
2020/12/17 01:00:50;;;;;;;3.07;2.73;;;21.90;53.90;;;;;;5115218;28;20241;-67
2020/12/17 01:03:16;;;;;;;2.33;2.13;;;21.90;53.90;;;;;;5115054;28;20201;-66
2020/12/17 01:05:41;;;;;;;3.40;3.10;;;21.90;53.90;;;;;;5115918;28;20168;-66
2020/12/17 01:08:07;;;;;;;2.83;2.53;;;21.90;53.90;;;;;;5115167;28;20177;-66
2020/12/17 01:10:33;;;;;;;3.47;2.10;;;21.90;53.90;;;;;;5115079;28;20173;-67
2020/12/17 01:12:59;;;;;;;3.27;2.40;;;21.90;53.90;;;;;;5115014;28;20204;-66
2020/12/17 01:15:24;;;;;;;2.43;2.13;;;21.80;53.90;;;;;;5115050;28;20419;-66
2020/12/17 01:17:51;;;;;;;3.13;2.87;;;21.90;53.90;;;;;;5115254;28;20176;-66
2020/12/17 01:20:16;;;;;;;3.83;2.53;;;21.90;53.90;;;;;;5115204;28;20180;-65
2020/12/17 01:22:42;;;;;;;3.03;2.67;;;21.90;54.00;;;;;;5114759;28;20430;-66
2020/12/17 01:25:07;;;;;;;3.70;2.80;;;21.80;53.90;;;;;;5115089;28;20653;-66
2020/12/17 01:27:33;;;;;;;3.60;3.00;;;21.80;53.90;;;;;;5114751;28;20165;-67
2020/12/17 01:29:59;;;;;;;3.53;2.23;;;21.90;54.00;;;;;;5114666;28;20165;-66
2020/12/17 01:32:24;;;;;;;3.00;2.07;;;21.80;53.90;;;;;;5114532;28;20224;-67
2020/12/17 01:34:50;;;;;;;3.40;2.37;;;21.80;54.50;;;;;;5114506;28;20165;-66
2020/12/17 01:37:16;;;;;;;4.00;2.37;;;21.80;54.00;;;;;;5114562;28;20161;-67
2020/12/17 01:39:42;;;;;;;3.07;2.70;;;21.80;53.90;;;;;;5114514;28;20928;-67
2020/12/17 01:42:08;;;;;;;2.50;2.20;;;21.80;53.90;;;;;;5114706;28;20204;-66
2020/12/17 01:44:39;;;;;;;3.47;2.43;;;21.80;53.90;;;;;;5113156;28;20457;-66
2020/12/17 01:47:05;;;;;;;3.63;2.73;;;21.80;53.90;;;;;;5114720;28;20160;-67
2020/12/17 01:49:31;;;;;;;3.30;2.87;;;21.80;53.90;;;;;;5114598;28;20752;-67
2020/12/17 01:51:56;;;;;;;3.00;2.17;;;21.80;53.90;;;;;;5114256;28;20467;-66
2020/12/17 01:54:22;;;;;;;3.57;2.80;;;21.80;53.90;;;;;;5114300;28;20251;-67
2020/12/17 01:56:55;;;;;;;2.70;2.50;;;21.80;53.90;;;;;;5114184;28;20531;-66
2020/12/17 01:59:23;;;;;;;2.83;2.40;;;21.80;53.90;;;;;;5114568;28;20153;-67
2020/12/17 02:01:50;;;;;;;2.90;2.43;;;21.80;53.90;;;;;;5114059;27;20430;-67
2020/12/17 02:04:18;;;;;;;3.10;2.73;;;21.80;53.90;;;;;;5114077;28;20442;-66
2020/12/17 02:06:44;;;;;;;4.10;3.07;;;21.80;53.90;;;;;;5114406;28;20421;-66
2020/12/17 02:09:10;;;;;;;2.50;2.30;;;21.80;53.90;;;;;;5114064;28;20395;-67
2020/12/17 02:11:35;;;;;;;3.00;2.20;;;21.80;53.90;;;;;;5112657;28;20471;-66
2020/12/17 02:14:01;;;;;;;2.70;2.23;;;21.80;54.00;;;;;;5112664;28;20264;-67
2020/12/17 02:16:27;;;;;;;3.07;2.37;;;21.80;53.90;;;;;;5113840;28;20165;-67
2020/12/17 02:18:53;;;;;;;2.50;2.30;;;21.80;54.00;;;;;;5113845;28;20158;-67
2020/12/17 02:21:22;;;;;;;2.80;2.40;;;21.80;54.00;;;;;;5113765;28;20177;-67
2020/12/17 02:23:48;;;;;;;2.83;2.60;;;21.80;54.00;;;;;;5113647;28;20686;-67
2020/12/17 02:26:14;;;;;;;2.70;2.50;;;21.80;54.00;;;;;;5113719;28;20395;-66
2020/12/17 02:28:40;;;;;;;2.70;2.23;;;21.80;54.00;;;;;;5113745;28;20514;-66
2020/12/17 02:31:06;;;;;;;2.80;2.53;;;21.80;54.00;;;;;;5113646;28;20399;-66
2020/12/17 02:33:32;;;;;;;2.27;2.07;;;21.80;54.00;;;;;;5113538;28;20430;-66
2020/12/17 02:35:57;;;;;;;2.73;2.40;;;21.80;54.00;;;;;;5113641;28;20176;-66
2020/12/17 02:38:24;;;;;;;2.30;2.10;;;21.80;54.00;;;;;;5113568;28;20218;-66
2020/12/17 02:40:50;;;;;;;3.20;2.70;;;21.80;54.00;;;;;;5113456;28;20180;-67
2020/12/17 02:43:16;;;;;;;3.00;2.60;;;21.80;54.00;;;;;;5113642;28;20443;-66
2020/12/17 02:45:46;;;;;;;2.70;2.50;;;21.80;54.00;;;;;;5113563;28;20402;-66
2020/12/17 02:48:12;;;;;;;2.83;2.53;;;21.80;54.00;;;;;;5111895;28;20662;-66
2020/12/17 02:50:38;;;;;;;2.80;2.47;;;21.80;54.00;;;;;;5113395;28;20390;-66
2020/12/17 02:53:04;;;;;;;3.27;2.37;;;21.70;53.90;;;;;;5113333;28;20241;-66
2020/12/17 02:55:29;;;;;;;4.60;2.67;;;21.70;54.00;;;;;;5113442;28;20399;-67
2020/12/17 02:57:55;;;;;;;3.40;2.60;;;21.70;54.00;;;;;;5113515;28;20168;-67
2020/12/17 03:00:21;;;;;;;2.93;2.20;;;21.70;54.00;;;;;;5113343;28;20169;-66
2020/12/17 03:02:46;;;;;;;3.00;2.70;;;21.70;54.00;;;;;;5113234;28;20192;-66
2020/12/17 03:05:12;;;;;;;2.67;2.43;;;21.70;54.00;;;;;;5113324;28;20307;-67
2020/12/17 03:07:38;;;;;;;2.67;2.47;;;21.70;54.00;;;;;;5113322;28;20305;-66
2020/12/17 03:10:05;;;;;;;2.97;2.50;;;21.70;53.90;;;;;;5113333;28;20410;-67
2020/12/17 03:12:31;;;;;;;2.47;2.10;;;21.70;54.00;;;;;;5113256;28;20216;-67
2020/12/17 03:14:56;;;;;;;2.30;2.10;;;21.70;54.00;;;;;;5113235;28;20465;-67
2020/12/17 03:17:22;;;;;;;2.67;2.33;;;21.70;53.90;;;;;;5113263;28;20180;-67
2020/12/17 03:19:48;;;;;;;2.40;2.13;;;21.70;53.90;;;;;;5113502;28;20592;-66
2020/12/17 03:22:13;;;;;;;2.53;2.33;;;21.70;53.90;;;;;;5113132;28;20250;-66
2020/12/17 03:24:39;;;;;;;2.30;2.10;;;21.70;53.90;;;;;;5113342;28;20618;-66
2020/12/17 03:27:04;;;;;;;2.60;1.87;;;21.70;54.00;;;;;;5113127;28;20165;-66
2020/12/17 03:29:30;;;;;;;3.40;2.40;;;21.70;54.00;;;;;;5113081;28;20642;-66
2020/12/17 03:31:56;;;;;;;2.83;2.30;;;21.70;53.90;;;;;;5112981;28;20185;-66
2020/12/17 03:34:21;;;;;;;2.37;2.17;;;21.70;54.00;;;;;;5113387;28;20184;-67
2020/12/17 03:36:47;;;;;;;2.20;2.00;;;21.70;54.50;;;;;;5113019;28;20170;-66
2020/12/17 03:39:12;;;;;;;3.20;2.37;;;21.70;54.00;;;;;;5113290;28;20581;-66
2020/12/17 03:41:38;;;;;;;2.30;2.10;;;21.70;53.90;;;;;;5112804;28;20257;-67
2020/12/17 03:44:04;;;;;;;2.77;2.50;;;21.70;54.00;;;;;;5113000;28;20559;-66
2020/12/17 03:46:29;;;;;;;2.50;2.30;;;21.70;54.00;;;;;;5112849;28;20177;-67
2020/12/17 03:48:55;;;;;;;2.87;2.13;;;21.70;54.00;;;;;;5112920;28;20176;-67
2020/12/17 03:51:21;;;;;;;2.50;2.30;;;21.70;54.00;;;;;;5112870;28;20166;-66
2020/12/17 03:53:46;;;;;;;3.37;2.60;;;21.70;54.00;;;;;;5112787;28;20606;-66
2020/12/17 03:56:12;;;;;;;2.53;2.33;;;21.70;54.00;;;;;;5113132;28;20180;-66
2020/12/17 03:58:37;;;;;;;5.43;2.73;;;21.70;54.00;;;;;;5114045;28;20162;-66
2020/12/17 04:01:03;;;;;;;2.33;2.13;;;21.70;54.00;;;;;;5115157;28;20181;-66
2020/12/17 04:03:29;;;;;;;2.10;1.90;;;21.70;54.00;;;;;;5116245;28;20200;-67
2020/12/17 04:05:54;;;;;;;2.60;2.30;;;21.70;54.00;;;;;;5116363;28;20655;-66
2020/12/17 04:08:20;;;;;;;2.60;2.40;;;21.70;54.00;;;;;;5116576;28;20219;-66
2020/12/17 04:10:45;;;;;;;2.27;1.93;;;21.70;54.00;;;;;;5116278;28;20172;-66
2020/12/17 04:13:11;;;;;;;2.67;2.10;;;21.70;54.10;;;;;;5116128;28;20193;-66
2020/12/17 04:15:36;;;;;;;2.40;2.20;;;21.70;54.10;;;;;;5116285;28;20687;-66
2020/12/17 04:18:02;;;;;;;1.90;1.70;;;21.60;54.00;;;;;;5116218;28;20173;-66
2020/12/17 04:20:28;;;;;;;2.40;2.20;;;21.70;54.10;;;;;;5116152;28;20640;-66
2020/12/17 04:22:53;;;;;;;2.07;1.90;;;21.70;54.00;;;;;;5115976;28;20245;-66
2020/12/17 04:25:19;;;;;;;2.47;2.00;;;21.70;54.10;;;;;;5114740;28;20177;-67
2020/12/17 04:27:44;;;;;;;3.40;2.50;;;21.60;54.00;;;;;;5116041;28;20302;-66
2020/12/17 04:30:10;;;;;;;3.47;2.17;;;21.60;54.00;;;;;;5115956;28;20161;-66
2020/12/17 04:32:36;;;;;;;2.03;1.83;;;21.70;54.00;;;;;;5115913;28;20191;-67
2020/12/17 04:35:02;;;;;;;2.60;2.40;;;21.70;54.00;;;;;;5115811;28;20608;-67
2020/12/17 04:37:27;;;;;;;2.03;1.80;;;21.70;54.00;;;;;;5116090;28;20593;-66
2020/12/17 04:39:53;;;;;;;2.50;2.30;;;21.70;54.00;;;;;;5115687;28;20440;-67
2020/12/17 04:42:20;;;;;;;1.97;1.60;;;21.70;54.00;;;;;;5115540;28;20242;-67
2020/12/17 04:44:46;;;;;;;2.17;1.73;;;21.70;54.00;;;;;;5115572;28;20192;-67
2020/12/17 04:47:19;;;;;;;2.60;2.13;;;21.70;54.00;;;;;;5115820;28;20418;-66
2020/12/17 04:49:50;;;;;;;2.17;1.67;;;21.70;54.00;;;;;;5115587;28;20876;-67
2020/12/17 04:52:17;;;;;;;2.17;1.97;;;21.70;54.00;;;;;;5115439;28;20462;-66
2020/12/17 04:54:43;;;;;;;2.30;2.10;;;21.70;54.00;;;;;;5115467;28;20415;-66
2020/12/17 04:57:11;;;;;;;2.23;1.83;;;21.70;54.00;;;;;;5115364;28;20791;-67
2020/12/17 04:59:42;;;;;;;2.53;2.30;;;21.60;54.00;;;;;;5115397;28;20778;-66
2020/12/17 05:02:09;;;;;;;2.30;2.00;;;21.60;54.00;;;;;;5115506;28;20438;-66
2020/12/17 05:04:37;;;;;;;2.17;1.97;;;21.60;54.00;;;;;;5115520;28;20542;-66
2020/12/17 05:07:04;;;;;;;2.30;2.10;;;21.60;54.00;;;;;;5115164;28;20403;-66
2020/12/17 05:09:30;;;;;;;1.87;1.57;;;21.60;54.00;;;;;;5114746;28;20457;-66
2020/12/17 05:11:56;;;;;;;2.00;1.80;;;21.60;54.00;;;;;;5113778;28;21025;-66
2020/12/17 05:14:23;;;;;;;2.10;1.90;;;21.60;54.60;;;;;;5115044;28;20415;-66
2020/12/17 05:16:49;;;;;;;2.10;1.90;;;21.60;54.10;;;;;;5115275;28;20192;-66
2020/12/17 05:19:15;;;;;;;2.47;2.10;;;21.60;54.10;;;;;;5114933;28;20457;-66
2020/12/17 05:21:41;;;;;;;1.90;1.70;;;21.60;54.10;;;;;;5114827;28;20438;-66
2020/12/17 05:24:07;;;;;;;2.53;2.33;;;21.60;54.10;;;;;;5114880;28;20193;-67
2020/12/17 05:26:35;;;;;;;2.43;2.00;;;21.60;54.10;;;;;;5115015;28;20409;-66
2020/12/17 05:29:01;;;;;;;3.80;2.07;;;21.60;54.10;;;;;;5114659;28;20904;-66
2020/12/17 05:31:27;;;;;;;2.10;1.90;;;21.60;54.10;;;;;;5114552;28;20421;-66
2020/12/17 05:33:52;;;;;;;3.00;2.20;;;21.60;54.10;;;;;;5114728;28;20241;-66
2020/12/17 05:36:25;;;;;;;2.30;2.10;;;21.60;54.10;;;;;;5113299;28;20415;-66
2020/12/17 05:38:54;;;;;;;2.27;2.07;;;21.60;54.10;;;;;;5114625;28;20173;-66
2020/12/17 05:41:20;;;;;;;2.60;2.40;;;21.60;54.00;;;;;;5114431;27;20437;-65
2020/12/17 05:43:46;;;;;;;1.93;1.80;;;21.60;54.00;;;;;;5113056;28;20455;-66
2020/12/17 05:46:11;;;;;;;2.37;1.93;;;21.60;54.00;;;;;;5114412;28;20587;-66
2020/12/17 05:48:37;;;;;;;2.17;1.87;;;21.60;54.00;;;;;;5114635;28;20566;-66
2020/12/17 05:51:03;;;;;;;2.20;1.80;;;21.60;54.00;;;;;;5114341;28;20178;-65
2020/12/17 05:53:39;;;;;;;2.37;1.90;;;21.60;54.00;;;;;;5114259;28;20725;-67
2020/12/17 05:56:08;;;;;;;2.47;2.27;;;21.60;53.90;;;;;;5114639;28;20171;-66
2020/12/17 05:58:42;;;;;;;2.03;1.83;;;21.70;54.00;;;;;;5114135;28;20897;-67
2020/12/17 06:01:08;;;;;;;2.37;1.90;;;21.70;54.00;;;;;;5114181;28;20411;-66
2020/12/17 06:03:34;;;;;;;2.40;2.20;;;21.70;53.90;;;;;;5113546;28;20454;-66
2020/12/17 06:06:03;;;;;;;2.13;1.73;;;21.70;53.90;;;;;;5114066;28;20737;-67
2020/12/17 06:08:35;;;;;;;3.47;2.00;;;21.70;53.90;;;;;;5114068;28;20207;-67
2020/12/17 06:11:06;;;;;;;1.90;1.63;;;21.70;54.00;;;;;;5114320;28;20387;-66
2020/12/17 06:13:37;;;;;;;2.10;1.90;;;21.70;53.80;;;;;;5114309;28;20960;-66
2020/12/17 06:16:05;;;;;;;2.00;1.80;;;21.70;53.80;;;;;;5114003;27;20387;-67
2020/12/17 06:18:37;;;;;;;3.30;1.80;;;21.70;53.80;;;;;;5113956;28;20406;-66
2020/12/17 06:21:08;;;;;;;2.07;1.87;;;21.80;53.80;;;;;;5113082;28;20407;-66
2020/12/17 06:23:33;;;;;;;2.07;1.87;;;21.70;53.80;;;;;;5113716;28;20455;-66
2020/12/17 06:25:59;;;;;;;3.07;2.47;;;21.70;53.80;;;;;;5113739;28;20792;-66
2020/12/17 06:28:37;;;;;;;1.80;1.60;;;21.70;53.70;;;;;;5113738;28;20252;-66
2020/12/17 06:31:04;;;;;;;2.03;1.60;;;21.70;53.70;;;;;;5114004;28;20231;-66
2020/12/17 06:33:31;;;;;;;2.07;1.80;;;21.70;53.80;;;;;;5113857;28;20510;-66
2020/12/17 06:36:02;;;;;;;3.83;1.60;;;21.70;53.80;;;;;;5113574;28;20407;-65
2020/12/17 06:38:28;;;;;;;2.30;2.00;;;21.70;53.80;;;;;;5113580;28;20413;-65
2020/12/17 06:40:54;;;;;;;2.30;2.03;;;21.70;53.80;;;;;;5113427;28;20442;-69
2020/12/17 06:43:39;;;;;;;2.37;2.17;;;21.70;53.80;;;;;;5113407;28;20450;-67
2020/12/17 06:46:05;;;;;;;2.37;1.93;;;21.70;53.80;;;;;;5113536;28;20149;-67
2020/12/17 06:48:40;;;;;;;2.47;2.27;;;21.70;53.80;;;;;;5113440;28;20824;-69
2020/12/17 06:51:30;;;;;;;2.07;1.90;;;21.70;53.80;;;;;;5113422;28;20207;-67
2020/12/17 06:53:56;;;;;;;2.33;1.60;;;21.80;53.80;;;;;;5113534;28;20398;-68
2020/12/17 06:56:22;;;;;;;1.53;1.43;;;21.70;53.80;;;;;;5113644;28;20414;-70
2020/12/17 06:58:47;;;;;;;1.90;1.73;;;21.70;53.70;;;;;;5113588;28;20928;-70
2020/12/17 07:01:25;;;;;;;2.00;1.80;;;21.70;53.70;;;;;;5113274;28;20656;-68
2020/12/17 07:03:52;;;;;;;1.97;1.77;;;21.80;53.70;;;;;;5113314;28;20662;-68
2020/12/17 07:06:22;;;;;;;2.13;1.93;;;21.80;53.70;;;;;;5112013;28;20411;-67
2020/12/17 07:08:51;;;;;;;2.47;2.10;;;21.80;53.70;;;;;;5113273;28;20434;-67
2020/12/17 07:11:43;;;;;;;2.17;1.60;;;21.80;53.70;;;;;;5113679;28;20410;-66
2020/12/17 07:14:18;;;;;;;2.07;1.70;;;21.80;53.70;;;;;;5113295;28;20403;-67
2020/12/17 07:16:58;;;;;;;2.87;1.87;;;21.80;53.70;;;;;;5113226;28;20453;-66
2020/12/17 07:19:27;;;;;;;3.80;2.20;;;21.80;53.70;;;;;;5113299;28;20952;-67
2020/12/17 07:22:01;;;;;;;2.60;2.00;;;21.80;53.70;;;;;;5112560;28;20435;-67
2020/12/17 07:24:31;;;;;;;2.00;1.80;;;21.80;53.70;;;;;;5113144;28;20431;-67
2020/12/17 07:27:03;;;;;;;3.83;1.83;;;21.90;53.80;;;;;;5113325;28;20430;-66
2020/12/17 07:29:37;;;;;;;2.03;1.77;;;21.90;53.80;;;;;;5113114;28;20402;-70
2020/12/17 07:32:27;;;;;;;2.83;2.40;;;21.90;53.70;;;;;;5113069;28;20425;-66
2020/12/17 07:34:58;;;;;;;2.90;2.43;;;21.90;53.80;;;;;;5117020;28;20451;-67
2020/12/17 07:37:33;;;;;;;2.27;1.87;;;21.80;53.70;;;;;;5116990;28;20387;-67
2020/12/17 07:40:03;;;;;;;2.17;1.77;;;21.90;53.80;;;;;;5115642;28;20421;-67
2020/12/17 07:42:29;;;;;;;2.30;2.10;;;22.00;53.80;;;;;;5116670;28;20808;-67
2020/12/17 07:44:54;;;;;;;2.33;1.73;;;22.00;53.70;;;;;;5116740;28;20449;-67
2020/12/17 07:47:20;;;;;;;2.40;2.20;;;22.00;53.70;;;;;;5116780;28;20410;-66
2020/12/17 07:49:46;;;;;;;2.57;1.80;;;22.10;53.70;;;;;;5116693;28;20165;-67
2020/12/17 07:52:28;;;;;;;2.00;1.80;;;22.10;53.60;;;;;;5116635;28;20429;-66
2020/12/17 07:54:54;;;;;;;2.53;2.13;;;22.10;53.60;;;;;;5116908;28;20187;-67
2020/12/17 07:57:20;;;;;;;3.13;2.03;;;22.10;53.50;;;;;;5116673;28;20410;-67
2020/12/17 07:59:45;;;;;;;2.07;1.90;;;22.20;53.60;;;;;;5116649;28;20663;-67
2020/12/17 08:02:11;;;;;;;2.53;2.10;;;22.20;53.50;;;;;;5116431;28;20223;-67
2020/12/17 08:04:37;;;;;;;2.20;1.90;;;22.20;53.50;;;;;;5116658;28;20185;-66
2020/12/17 08:07:08;;;;;;;2.13;1.50;;;22.20;53.40;;;;;;5116581;28;20647;-67
2020/12/17 08:09:33;;;;;;;2.30;1.97;;;22.20;53.50;;;;;;5116668;28;20168;-67
2020/12/17 08:12:00;;;;;;;2.33;1.83;;;22.30;53.50;;;;;;5116383;28;20951;-67
2020/12/17 08:14:26;;;;;;;2.10;1.90;;;22.30;53.50;;;;;;5116317;28;20165;-67
2020/12/17 08:17:07;;;;;;;2.20;2.00;;;22.30;53.40;;;;;;5116517;28;20471;-66
2020/12/17 08:19:33;;;;;;;2.20;1.60;;;22.30;53.40;;;;;;5116225;28;20164;-66
2020/12/17 08:22:00;;;;;;;2.30;2.10;;;22.30;53.40;;;;;;5116032;28;20434;-66
2020/12/17 08:24:28;;;;;;;1.83;1.47;;;22.30;53.40;;;;;;5116130;28;20499;-66
2020/12/17 08:26:54;;;;;;;2.60;1.80;;;22.40;53.50;;;;;;5116481;28;20434;-65
2020/12/17 08:29:22;;;;;;;1.90;1.60;;;22.40;53.50;;;;;;5115999;27;20407;-67
2020/12/17 08:31:48;;;;;;;2.37;1.97;;;22.40;53.40;;;;;;5116130;28;20455;-66
2020/12/17 08:34:13;;;;;;;1.40;1.30;;;22.40;53.40;;;;;;5115897;27;20442;-65
2020/12/17 08:36:39;;;;;;;2.37;1.50;;;22.40;53.40;;;;;;5115891;28;20718;-66
2020/12/17 08:39:08;;;;;;;2.17;1.83;;;22.40;53.50;;;;;;5115727;28;20177;-66
2020/12/17 08:41:45;;;;;;;1.90;1.63;;;22.40;53.40;;;;;;5115540;28;20254;-66
2020/12/17 08:44:12;;;;;;;2.10;1.77;;;22.50;53.50;;;;;;5114931;28;20444;-66
2020/12/17 08:46:45;;;;;;;1.80;1.60;;;22.50;53.50;;;;;;5115929;27;20403;-65
2020/12/17 08:49:13;;;;;;;2.03;1.70;;;22.50;53.50;;;;;;5115577;28;20881;-66
2020/12/17 08:51:43;;;;;;;1.73;1.50;;;22.50;53.50;;;;;;5115758;28;20402;-67
2020/12/17 08:54:09;;;;;;;2.10;1.90;;;22.50;53.50;;;;;;5115527;28;20391;-66
2020/12/17 08:56:34;;;;;;;1.87;1.67;;;22.50;53.60;;;;;;5115385;28;20959;-66
2020/12/17 08:59:04;;;;;;;1.60;1.37;;;22.50;53.40;;;;;;5115376;28;20248;-68
2020/12/17 09:01:36;;;;;;;2.03;1.83;;;22.50;53.40;;;;;;5115344;28;20695;-65
2020/12/17 09:04:08;;;;;;;2.77;2.13;;;22.50;53.40;;;;;;5115476;28;20992;-67
2020/12/17 09:06:35;;;;;;;2.43;1.83;;;22.50;53.40;;;;;;5115318;28;20494;-67
2020/12/17 09:09:13;;;;;;;3.27;2.10;;;22.60;53.50;;;;;;5115474;28;20760;-67
2020/12/17 09:11:39;;;;;;;3.00;1.90;;;22.60;53.50;;;;;;5115027;28;20476;-67
2020/12/17 09:14:12;;;;;;;1.53;1.30;;;22.60;53.50;;;;;;5115083;28;20420;-66
2020/12/17 09:16:41;;;;;;;2.50;1.93;;;22.60;53.50;;;;;;5115077;28;20774;-67
2020/12/17 09:19:09;;;;;;;1.93;1.73;;;22.60;53.50;;;;;;5115260;28;20403;-66
2020/12/17 09:21:37;;;;;;;2.00;1.70;;;22.60;53.50;;;;;;5114991;28;20835;-68
2020/12/17 09:24:03;;;;;;;3.63;1.90;;;22.60;54.00;;;;;;5114832;28;20439;-67
2020/12/17 09:26:29;;;;;;;3.53;1.90;;;22.60;53.40;;;;;;5114807;28;20403;-67
2020/12/17 09:28:57;;;;;;;2.60;1.60;;;22.60;53.50;;;;;;5113433;28;20474;-67
2020/12/17 09:31:34;;;;;;;2.77;1.70;;;22.70;53.50;;;;;;5114759;28;20169;-66
2020/12/17 09:34:18;;;;;;;1.90;1.57;;;22.70;53.50;;;;;;5113358;28;20444;-66
2020/12/17 09:37:04;;;;;;;3.57;2.20;;;22.70;53.50;;;;;;5113362;28;20901;-67
2020/12/17 09:39:30;;;;;;;2.20;1.70;;;22.70;53.50;;;;;;5114291;27;20419;-67
2020/12/17 09:41:57;;;;;;;2.57;2.10;;;22.70;53.50;;;;;;5113788;28;21017;-67
2020/12/17 09:44:31;;;;;;;2.00;1.70;;;22.70;53.50;;;;;;5113680;28;20203;-69
2020/12/17 09:46:57;;;;;;;1.97;1.70;;;22.70;53.50;;;;;;5113574;28;20383;-68
2020/12/17 09:49:25;;;;;;;3.43;1.70;;;22.70;53.50;;;;;;5113312;28;20402;-67
2020/12/17 09:52:15;;;;;;;2.03;1.57;;;22.70;53.40;;;;;;5113543;28;20514;-67
2020/12/17 09:54:43;;;;;;;2.87;1.77;;;22.80;53.50;;;;;;5113598;28;20399;-67
2020/12/17 09:57:17;;;;;;;2.07;1.70;;;22.70;53.40;;;;;;5114092;28;20440;-67
2020/12/17 09:59:44;;;;;;;2.60;2.20;;;22.80;53.50;;;;;;5114497;28;20451;-67
2020/12/17 10:02:11;;;;;;;2.80;2.00;;;22.70;53.40;;;;;;5114186;28;20422;-67
2020/12/17 10:04:39;;;;;;;4.17;2.43;;;22.80;53.50;;;;;;5112817;28;20503;-67
2020/12/17 10:07:05;;;;;;;3.37;2.00;;;22.80;53.50;;;;;;5114060;28;20387;-65
2020/12/17 10:09:31;;;;;;;3.00;2.07;;;22.80;53.50;;;;;;5114090;28;20407;-67
2020/12/17 10:11:57;;;;;;;3.50;3.20;;;22.80;53.50;;;;;;5113940;28;20419;-67
2020/12/17 10:14:26;;;;;;;2.87;1.87;;;22.80;54.10;;;;;;5113984;28;20164;-67
2020/12/17 10:16:56;;;;;;;3.07;1.70;;;22.80;53.50;;;;;;5114164;28;20774;-66
2020/12/17 10:19:23;;;;;;;3.30;2.27;;;22.80;53.50;;;;;;5114186;28;20387;-67
2020/12/17 10:21:49;;;;;;;2.60;2.13;;;22.80;53.50;;;;;;5113988;28;20779;-67
2020/12/17 10:24:15;;;;;;;4.00;2.23;;;22.80;53.50;;;;;;5113698;28;20446;-67
2020/12/17 10:26:41;;;;;;;2.43;1.97;;;22.80;53.50;;;;;;5113005;28;20201;-67
2020/12/17 10:29:06;;;;;;;3.00;2.10;;;22.80;53.50;;;;;;5113733;28;20463;-67
2020/12/17 10:31:32;;;;;;;2.93;2.00;;;22.80;53.50;;;;;;5113679;28;20180;-67
2020/12/17 10:33:58;;;;;;;3.00;2.20;;;22.80;53.50;;;;;;5113686;28;20176;-68
2020/12/17 10:36:24;;;;;;;3.50;2.10;;;22.80;53.50;;;;;;5113657;28;20172;-68
2020/12/17 10:38:50;;;;;;;2.53;2.33;;;22.80;53.50;;;;;;5113906;28;20169;-67
2020/12/17 10:41:26;;;;;;;3.47;1.80;;;22.90;53.50;;;;;;5113679;28;20471;-67
2020/12/17 10:43:52;;;;;;;3.30;2.00;;;22.90;53.50;;;;;;5113607;28;20442;-67
2020/12/17 10:46:18;;;;;;;3.83;2.53;;;22.80;53.50;;;;;;5113535;28;20413;-66
2020/12/17 10:48:44;;;;;;;3.53;2.03;;;22.90;53.50;;;;;;5111898;28;20403;-67
2020/12/17 10:51:13;;;;;;;6.50;3.40;;;22.90;53.50;;;;;;5113039;28;20156;-68
2020/12/17 10:53:39;;;;;;;3.77;2.53;;;22.90;53.60;;;;;;5111286;28;20427;-68
2020/12/17 10:56:06;;;;;;;4.87;2.40;;;22.90;53.50;;;;;;5110024;28;20421;-68
2020/12/17 10:58:32;;;;;;;3.93;2.50;;;22.90;53.50;;;;;;5111326;28;20171;-68
2020/12/17 11:00:58;;;;;;;4.00;2.20;;;22.90;53.50;;;;;;5111246;28;20410;-67
2020/12/17 11:03:23;;;;;;;6.27;3.00;;;22.90;53.50;;;;;;5111310;28;20306;-67
2020/12/17 11:05:49;;;;;;;4.77;2.80;;;22.90;53.50;;;;;;5111294;28;20172;-67
2020/12/17 11:08:14;;;;;;;6.30;2.70;;;23.00;53.60;;;;;;5113524;28;20511;-67
2020/12/17 11:10:40;;;;;;;3.80;2.60;;;23.00;53.60;;;;;;5114223;28;20180;-68
2020/12/17 11:13:06;;;;;;;4.70;2.37;;;23.00;53.50;;;;;;5115471;28;20659;-68
2020/12/17 11:15:32;;;;;;;3.50;2.50;;;23.00;53.50;;;;;;5116605;28;20165;-67
2020/12/17 11:17:57;;;;;;;3.80;2.13;;;23.00;53.50;;;;;;5117387;28;20405;-67
2020/12/17 11:20:23;;;;;;;5.23;2.40;;;23.00;53.50;;;;;;5117418;28;20174;-66
2020/12/17 11:22:49;;;;;;;5.60;2.73;;;23.10;53.60;;;;;;5117235;28;20188;-68
2020/12/17 11:25:15;;;;;;;7.00;2.93;;;23.00;53.50;;;;;;5117672;28;20454;-66
2020/12/17 11:27:40;;;;;;;2.73;2.10;;;23.00;53.50;;;;;;5115907;28;20208;-67
2020/12/17 11:30:08;;;;;;;7.87;2.97;;;23.10;53.50;;;;;;5117412;28;20199;-67
2020/12/17 11:32:34;;;;;;;5.07;2.50;;;23.10;53.50;;;;;;5117001;28;20245;-67
2020/12/17 11:35:00;;;;;;;3.03;2.20;;;23.10;53.50;;;;;;5117077;28;20573;-66
2020/12/17 11:37:25;;;;;;;3.40;2.40;;;23.10;53.50;;;;;;5117125;27;20532;-66
2020/12/17 11:39:51;;;;;;;4.40;2.23;;;23.10;53.50;;;;;;5117530;28;20514;-67
2020/12/17 11:42:19;;;;;;;11.60;2.67;;;23.10;53.50;;;;;;5117080;28;20341;-66
2020/12/17 11:44:44;;;;;;;4.83;2.67;;;23.10;53.40;;;;;;5116903;28;20199;-66
2020/12/17 11:47:10;;;;;;;4.03;2.20;;;23.10;53.40;;;;;;5116812;28;20478;-69
2020/12/17 11:49:36;;;;;;;5.23;2.87;;;23.10;53.40;;;;;;5115776;28;20663;-67
2020/12/17 11:52:01;;;;;;;4.40;2.73;;;23.10;53.40;;;;;;5116734;28;20192;-68
2020/12/17 11:54:27;;;;;;;4.97;3.27;;;23.00;53.40;;;;;;5116712;28;20173;-68
2020/12/17 11:56:53;;;;;;;9.10;3.20;;;23.00;53.40;;;;;;5115355;28;20172;-68
2020/12/17 11:59:19;;;;;;;5.27;3.83;;;23.00;53.40;;;;;;5116926;28;20222;-68
2020/12/17 12:01:45;;;;;;;6.53;3.77;;;23.00;53.40;;;;;;5116514;28;20434;-68
2020/12/17 12:04:11;;;;;;;4.70;2.97;;;23.00;53.40;;;;;;5116592;28;20691;-67
2020/12/17 12:06:37;;;;;;;4.90;3.00;;;23.00;53.40;;;;;;5116780;28;20537;-68
2020/12/17 12:09:06;;;;;;;5.47;3.50;;;23.00;53.40;;;;;;5116511;28;20188;-68
2020/12/17 12:11:32;;;;;;;8.27;3.93;;;23.00;53.40;;;;;;5116355;28;20200;-68
2020/12/17 12:13:57;;;;;;;8.10;4.77;;;23.00;53.40;;;;;;5116253;28;20511;-69
2020/12/17 12:16:24;;;;;;;7.50;3.40;;;23.00;53.40;;;;;;5116267;28;20171;-69
2020/12/17 12:18:50;;;;;;;7.10;3.47;;;23.00;53.40;;;;;;5115271;28;20168;-68
2020/12/17 12:21:17;;;;;;;6.30;3.70;;;23.00;53.40;;;;;;5116050;28;20383;-68
2020/12/17 12:23:43;;;;;;;6.70;4.10;;;22.90;53.30;;;;;;5115953;28;20224;-68
2020/12/17 12:26:09;;;;;;;8.30;3.57;;;23.00;53.30;;;;;;5116118;28;20398;-69
2020/12/17 12:28:35;;;;;;;7.83;3.97;;;23.00;53.30;;;;;;5116365;27;20403;-69
2020/12/17 12:31:02;;;;;;;5.17;3.57;;;22.90;53.30;;;;;;5116066;28;20460;-69
2020/12/17 12:33:29;;;;;;;4.30;3.40;;;22.90;53.70;;;;;;5115991;28;20779;-69
2020/12/17 12:35:55;;;;;;;4.10;3.23;;;22.90;53.20;;;;;;5115913;27;20430;-68
2020/12/17 12:38:21;;;;;;;4.70;2.73;;;22.90;53.20;;;;;;5116153;28;20438;-68
2020/12/17 12:40:47;;;;;;;6.40;5.13;;;22.90;53.20;;;;;;5115881;28;21027;-69
2020/12/17 12:43:12;;;;;;;6.83;3.57;;;22.90;53.20;;;;;;5115628;28;20438;-69
2020/12/17 12:45:38;;;;;;;6.17;3.17;;;22.90;53.20;;;;;;5116022;28;20165;-68
2020/12/17 12:48:05;;;;;;;6.20;3.23;;;22.90;53.20;;;;;;5115933;28;20200;-68
2020/12/17 12:50:30;;;;;;;6.80;3.13;;;22.90;53.20;;;;;;5115863;28;20173;-69